createdAt,value
2023-11-15T00:00:01.482Z,98644.50
2023-11-15T00:02:30.423Z,98645.41
2023-11-15T00:04:58.777Z,98650.34
2023-11-15T00:07:26.596Z,98636.75
2023-11-15T00:09:54.725Z,98636.75
2023-11-15T00:12:23.101Z,98626.53
2023-11-15T00:14:52.847Z,98632.56
2023-11-15T00:17:21.091Z,98629.06
2023-11-15T00:19:50.660Z,98626.47
2023-11-15T00:22:18.678Z,98628.25
2023-11-15T00:24:46.977Z,98624.84
2023-11-15T00:27:14.685Z,98633.41
2023-11-15T00:29:42.924Z,98633.63
2023-11-15T00:32:11.546Z,98633.75
2023-11-15T00:34:39.657Z,98635.66
2023-11-15T00:37:07.781Z,98633.06
2023-11-15T00:39:35.854Z,98636.59
2023-11-15T00:42:04.958Z,98636.59
2023-11-15T00:44:33.516Z,98639.16
2023-11-15T00:47:01.628Z,98633.25
2023-11-15T00:49:30.734Z,98638.41
2023-11-15T00:51:58.551Z,98635.03
2023-11-15T00:54:26.682Z,98636.72
2023-11-15T00:56:57.044Z,98631.56
2023-11-15T00:59:37.604Z,98629.84
2023-11-15T01:02:06.667Z,98634.91
2023-11-15T01:04:36.076Z,98633.94
2023-11-15T01:07:04.518Z,98631.59
2023-11-15T01:09:35.193Z,98638.53
2023-11-15T01:12:05.081Z,98645.44
2023-11-15T01:14:33.308Z,98632.81
2023-11-15T01:17:01.155Z,98634.59
2023-11-15T01:19:30.181Z,98636.41
2023-11-15T01:21:58.976Z,98648.50
2023-11-15T01:24:28.213Z,98640.94
2023-11-15T01:26:56.798Z,98650.31
2023-11-15T01:29:24.823Z,98637.47
2023-11-15T01:31:52.632Z,98641.66
2023-11-15T01:34:20.730Z,98640.66
2023-11-15T01:36:49.270Z,98646.03
2023-11-15T01:39:17.855Z,98635.13
2023-11-15T01:41:49.373Z,98639.47
2023-11-15T01:44:18.823Z,98642.88
2023-11-15T01:46:51.110Z,98639.53
2023-11-15T01:49:21.464Z,98645.50
2023-11-15T01:51:53.898Z,98646.41
2023-11-15T01:54:23.242Z,98652.19
2023-11-15T01:56:51.146Z,98648.78
2023-11-15T01:59:19.847Z,98652.06
2023-11-15T02:01:48.993Z,98645.03
2023-11-15T02:04:17.095Z,98650.06
2023-11-15T02:06:44.927Z,98651.53
2023-11-15T02:09:13.120Z,98648.91
2023-11-15T02:11:41.144Z,98648.09
2023-11-15T02:14:10.899Z,98646.34
2023-11-15T02:16:39.011Z,98643.78
2023-11-15T02:19:09.221Z,98647.97
2023-11-15T02:21:37.416Z,98642.78
2023-11-15T02:24:06.293Z,98646.13
2023-11-15T02:26:33.969Z,98650.38
2023-11-15T02:29:01.921Z,98654.56
2023-11-15T02:31:29.787Z,98654.56
2023-11-15T02:33:57.698Z,98663.03
2023-11-15T02:36:25.468Z,98665.47
2023-11-15T02:38:54.353Z,98660.31
2023-11-15T02:41:22.507Z,98660.25
2023-11-15T02:43:50.542Z,98655.88
2023-11-15T02:46:24.008Z,98664.41
2023-11-15T02:48:52.652Z,98663.59
2023-11-15T02:51:20.517Z,98666.97
2023-11-15T02:53:49.987Z,98675.59
2023-11-15T02:56:17.704Z,98670.47
2023-11-15T02:58:45.670Z,98672.13
2023-11-15T03:01:14.144Z,98674.66
2023-11-15T03:03:42.289Z,98668.56
2023-11-15T03:06:10.797Z,98673.69
2023-11-15T03:08:38.879Z,98678.78
2023-11-15T03:11:07.169Z,98686.38
2023-11-15T03:13:35.460Z,98680.50
2023-11-15T03:16:03.373Z,98678.69
2023-11-15T03:18:31.508Z,98691.59
2023-11-15T03:20:59.941Z,98685.47
2023-11-15T03:23:27.975Z,98688.84
2023-11-15T03:25:55.752Z,98688.97
2023-11-15T03:28:23.713Z,98689.00
2023-11-15T03:30:51.450Z,98689.88
2023-11-15T03:33:20.183Z,98689.09
2023-11-15T03:35:48.062Z,98689.22
2023-11-15T03:38:16.265Z,98690.06
2023-11-15T03:40:44.302Z,98693.38
2023-11-15T03:43:12.902Z,98688.22
2023-11-15T03:45:40.654Z,98696.78
2023-11-15T03:48:10.637Z,98699.44
2023-11-15T03:50:38.613Z,98698.59
2023-11-15T03:53:06.883Z,98701.13
2023-11-15T03:55:34.619Z,98705.47
2023-11-15T03:58:03.092Z,98702.91
2023-11-15T04:00:30.968Z,98710.72
2023-11-15T04:02:59.070Z,98712.38
2023-11-15T04:05:29.373Z,98714.84
2023-11-15T04:07:57.816Z,98708.97
2023-11-15T04:10:25.889Z,98709.88
2023-11-15T04:12:55.790Z,98714.97
2023-11-15T04:15:23.672Z,98713.22
2023-11-15T04:17:51.920Z,98712.34
2023-11-15T04:20:19.823Z,98722.66
2023-11-15T04:22:47.831Z,98713.28
2023-11-15T04:25:15.876Z,98714.13
2023-11-15T04:27:43.890Z,98715.06
2023-11-15T04:30:12.355Z,98715.78
2023-11-15T04:32:40.831Z,98716.63
2023-11-15T04:35:09.083Z,98713.19
2023-11-15T04:37:37.083Z,98713.22
2023-11-15T04:40:07.869Z,98708.03
2023-11-15T04:42:36.055Z,98709.75
2023-11-15T04:45:04.604Z,98712.31
2023-11-15T04:47:33.291Z,98708.00
2023-11-15T04:50:01.545Z,98713.16
2023-11-15T04:52:29.768Z,98703.78
2023-11-15T04:54:57.513Z,98715.72
2023-11-15T04:57:27.033Z,98718.22
2023-11-15T04:59:56.722Z,98702.84
2023-11-15T05:02:25.130Z,98720.00
2023-11-15T05:04:53.710Z,98710.56
2023-11-15T05:07:23.977Z,98715.69
2023-11-15T05:09:51.779Z,98724.13
2023-11-15T05:12:19.881Z,98720.78
2023-11-15T05:14:47.632Z,98713.13
2023-11-15T05:17:16.140Z,98715.75
2023-11-15T05:19:43.941Z,98715.75
2023-11-15T05:22:12.138Z,98714.06
2023-11-15T05:24:42.073Z,98719.19
2023-11-15T05:27:11.102Z,98724.38
2023-11-15T05:29:38.929Z,98721.03
2023-11-15T05:32:07.559Z,98726.16
2023-11-15T05:34:35.730Z,98726.16
2023-11-15T05:37:03.713Z,98726.97
2023-11-15T05:39:31.493Z,98728.66
2023-11-15T05:41:59.787Z,98732.09
2023-11-15T05:44:27.572Z,98735.50
2023-11-15T05:46:55.609Z,98739.84
2023-11-15T05:49:23.392Z,98733.03
2023-11-15T05:51:51.612Z,98738.16
2023-11-15T05:54:19.289Z,98749.28
2023-11-15T05:56:50.589Z,98747.50
2023-11-15T05:59:18.373Z,98752.63
2023-11-15T06:01:46.550Z,98752.63
2023-11-15T06:04:14.359Z,98751.00
2023-11-15T06:06:42.351Z,98749.31
2023-11-15T06:09:14.785Z,98757.81
2023-11-15T06:11:43.611Z,98757.81
2023-11-15T06:14:13.472Z,98754.44
2023-11-15T06:16:41.763Z,98755.25
2023-11-15T06:19:09.914Z,98765.59
2023-11-15T06:21:42.778Z,98769.00
2023-11-15T06:24:11.105Z,98771.56
2023-11-15T06:26:39.706Z,98770.75
2023-11-15T06:29:08.483Z,98775.84
2023-11-15T06:31:39.832Z,98771.53
2023-11-15T06:34:08.623Z,98773.31
2023-11-15T06:36:36.691Z,98777.56
2023-11-15T06:39:06.326Z,98779.28
2023-11-15T06:41:39.826Z,98783.53
2023-11-15T06:44:08.681Z,98791.25
2023-11-15T06:46:40.390Z,98788.59
2023-11-15T06:49:11.988Z,98782.59
2023-11-15T06:51:47.618Z,98785.97
2023-11-15T06:54:15.372Z,98789.38
2023-11-15T06:56:49.941Z,98790.19
2023-11-15T06:59:18.613Z,98792.69
2023-11-15T07:01:49.463Z,98791.81
2023-11-15T07:04:18.224Z,98794.31
2023-11-15T07:06:49.661Z,98801.16
2023-11-15T07:09:17.605Z,98796.84
2023-11-15T07:11:47.968Z,98804.50
2023-11-15T07:14:17.049Z,98800.28
2023-11-15T07:16:57.366Z,98808.81
2023-11-15T07:19:25.906Z,98811.41
2023-11-15T07:21:54.550Z,98811.38
2023-11-15T07:24:23.118Z,98810.50
2023-11-15T07:26:51.416Z,98819.06
2023-11-15T07:29:19.613Z,98816.50
2023-11-15T07:31:54.839Z,98822.44
2023-11-15T07:34:23.772Z,98824.97
2023-11-15T07:36:54.936Z,98819.84
2023-11-15T07:39:23.201Z,98827.47
2023-11-15T07:41:52.024Z,98829.06
2023-11-15T07:44:21.194Z,98829.78
2023-11-15T07:46:53.506Z,98827.09
2023-11-15T07:49:24.740Z,98828.50
2023-11-15T07:51:53.069Z,98829.19
2023-11-15T07:54:21.225Z,98833.25
2023-11-15T07:56:49.363Z,98837.44
2023-11-15T07:59:18.144Z,98844.31
2023-11-15T08:01:48.106Z,98834.84
2023-11-15T08:04:17.385Z,98846.06
2023-11-15T08:06:45.755Z,98847.84
2023-11-15T08:09:26.052Z,98851.47
2023-11-15T08:11:56.606Z,98855.75
2023-11-15T08:14:25.620Z,98859.31
2023-11-15T08:16:54.423Z,98856.84
2023-11-15T08:19:22.369Z,98852.53
2023-11-15T08:21:50.536Z,98867.13
2023-11-15T08:24:22.663Z,98868.03
2023-11-15T08:26:54.374Z,98867.22
2023-11-15T08:29:23.261Z,98862.94
2023-11-15T08:31:51.654Z,98866.28
2023-11-15T08:34:23.872Z,98873.13
2023-11-15T08:36:53.009Z,98872.13
2023-11-15T08:39:23.759Z,98874.59
2023-11-15T08:41:52.322Z,98877.94
2023-11-15T08:44:20.192Z,98877.81
2023-11-15T08:46:49.551Z,98873.97
2023-11-15T08:49:18.176Z,98873.50
2023-11-15T08:51:48.549Z,98876.81
2023-11-15T08:54:17.390Z,98876.78
2023-11-15T08:56:46.836Z,98883.75
2023-11-15T08:59:16.132Z,98886.47
2023-11-15T09:01:45.837Z,98888.31
2023-11-15T09:04:14.918Z,98893.22
2023-11-15T09:06:49.057Z,98890.59
2023-11-15T09:09:18.736Z,98899.97
2023-11-15T09:11:48.549Z,98897.25
2023-11-15T09:14:17.569Z,98896.94
2023-11-15T09:16:46.173Z,98905.91
2023-11-15T09:19:18.467Z,98905.00
2023-11-15T09:21:50.130Z,98905.88
2023-11-15T09:24:26.111Z,98909.78
2023-11-15T09:26:54.217Z,98917.03
2023-11-15T09:29:22.276Z,98906.78
2023-11-15T09:31:51.440Z,98904.63
2023-11-15T09:34:19.519Z,98906.09
2023-11-15T09:36:49.265Z,98893.03
2023-11-15T09:39:19.736Z,98905.91
2023-11-15T09:41:55.272Z,98899.47
2023-11-15T09:44:25.114Z,98903.44
2023-11-15T09:46:55.059Z,98905.38
2023-11-15T09:49:25.589Z,98915.03
2023-11-15T09:51:54.183Z,98913.34
2023-11-15T09:54:23.297Z,98921.28
2023-11-15T09:56:51.630Z,98916.91
2023-11-15T09:59:20.263Z,98920.59
2023-11-15T10:01:50.694Z,98920.91
2023-11-15T10:04:26.724Z,98935.13
2023-11-15T10:07:05.672Z,98932.72
2023-11-15T10:09:36.481Z,98929.84
2023-11-15T10:12:07.436Z,98924.06
2023-11-15T10:14:39.191Z,98928.16
2023-11-15T10:17:08.422Z,98925.78
2023-11-15T10:19:36.565Z,98925.78
2023-11-15T10:22:06.291Z,98927.56
2023-11-15T10:24:36.434Z,98930.56
2023-11-15T10:27:16.147Z,98922.31
2023-11-15T10:29:47.984Z,98923.63
2023-11-15T10:32:22.014Z,98930.22
2023-11-15T10:34:52.806Z,98927.00
2023-11-15T10:37:20.924Z,98928.28
2023-11-15T10:39:49.365Z,98928.13
2023-11-15T10:42:19.318Z,98929.53
2023-11-15T10:44:49.439Z,98936.84
2023-11-15T10:47:24.054Z,98933.03
2023-11-15T10:49:59.131Z,98938.44
2023-11-15T10:52:30.611Z,98939.34
2023-11-15T10:54:58.957Z,98939.63
2023-11-15T10:57:28.962Z,98942.44
2023-11-15T11:00:07.322Z,98951.25
2023-11-15T11:02:39.746Z,98948.63
2023-11-15T11:05:10.043Z,98952.97
2023-11-15T11:07:50.485Z,98953.69
2023-11-15T11:11:07.651Z,98948.34
2023-11-15T11:13:35.941Z,98955.88
2023-11-15T11:19:28.856Z,98960.25
2023-11-15T11:22:04.462Z,98955.78
2023-11-15T11:24:39.812Z,98958.38
2023-11-15T11:27:13.288Z,98968.59
2023-11-15T11:29:50.623Z,98969.16
2023-11-15T11:32:28.134Z,98971.53
2023-11-15T11:35:02.456Z,98978.50
2023-11-15T11:37:46.370Z,98979.34
2023-11-15T11:40:15.742Z,98978.25
2023-11-15T11:42:45.105Z,98980.78
2023-11-15T11:45:15.052Z,98978.19
2023-11-15T11:47:47.605Z,98982.31
2023-11-15T11:50:25.556Z,98984.00
2023-11-15T11:52:57.864Z,98983.31
2023-11-15T11:55:27.364Z,98993.69
2023-11-15T11:57:55.201Z,99001.34
2023-11-15T12:00:23.554Z,98996.38
2023-11-15T12:03:00.954Z,98992.41
2023-11-15T12:05:34.116Z,98996.72
2023-11-15T12:08:04.092Z,99005.50
2023-11-15T12:10:32.378Z,99001.38
2023-11-15T12:13:04.229Z,99003.91
2023-11-15T12:15:33.001Z,99008.72
2023-11-15T12:18:01.458Z,99007.66
2023-11-15T12:20:35.099Z,99005.78
2023-11-15T12:23:09.389Z,99009.66
2023-11-15T12:25:47.033Z,99007.31
2023-11-15T12:28:16.107Z,98999.72
2023-11-15T12:30:44.950Z,99008.53
2023-11-15T12:33:13.980Z,99010.59
2023-11-15T12:35:43.720Z,99020.25
2023-11-15T12:38:14.391Z,99020.19
2023-11-15T12:40:45.513Z,99028.97
2023-11-15T12:43:20.902Z,99032.69
2023-11-15T12:45:51.232Z,99041.75
2023-11-15T12:48:19.427Z,99047.25
2023-11-15T12:50:49.325Z,99049.25
2023-11-15T12:53:18.957Z,99053.72
2023-11-15T12:55:52.424Z,99060.56
2023-11-15T12:58:22.738Z,99067.47
2023-11-15T13:01:08.607Z,99068.38
2023-11-15T13:03:38.039Z,99075.22
2023-11-15T13:06:17.726Z,99078.75
2023-11-15T13:08:52.914Z,99083.06
2023-11-15T13:11:25.912Z,99079.69
2023-11-15T13:13:54.662Z,99090.88
2023-11-15T13:16:27.083Z,99092.56
2023-11-15T13:18:55.195Z,99099.44
2023-11-15T13:21:24.695Z,99104.63
2023-11-15T13:23:56.937Z,99104.72
2023-11-15T13:26:26.142Z,99118.38
2023-11-15T13:28:54.415Z,99117.53
2023-11-15T13:31:25.600Z,99124.41
2023-11-15T13:33:57.741Z,99125.38
2023-11-15T13:36:27.843Z,99127.94
2023-11-15T13:38:55.698Z,99127.94
2023-11-15T13:41:25.129Z,99127.94
2023-11-15T13:43:53.852Z,99144.19
2023-11-15T13:46:29.548Z,99142.47
2023-11-15T13:48:59.764Z,99150.16
2023-11-15T13:51:29.392Z,99167.22
2023-11-15T13:53:58.154Z,99173.97
2023-11-15T13:56:26.339Z,99186.84
2023-11-15T13:58:54.291Z,99192.88
2023-11-15T14:01:22.284Z,99192.00
2023-11-15T14:03:50.158Z,99200.56
2023-11-15T14:06:18.246Z,99210.81
2023-11-15T14:08:52.258Z,99218.53
2023-11-15T14:11:30.457Z,99223.63
2023-11-15T14:13:58.714Z,99229.59
2023-11-15T14:16:27.136Z,99239.81
2023-11-15T14:18:56.041Z,99244.91
2023-11-15T14:21:25.286Z,99245.78
2023-11-15T14:23:53.394Z,99246.63
2023-11-15T14:26:21.502Z,99251.75
2023-11-15T14:28:50.652Z,99260.25
2023-11-15T14:31:19.197Z,99262.75
2023-11-15T14:33:47.145Z,99270.44
2023-11-15T14:36:17.588Z,99272.97
2023-11-15T14:38:48.272Z,99280.66
2023-11-15T14:41:17.687Z,99283.22
2023-11-15T14:43:46.696Z,99299.41
2023-11-15T14:46:18.338Z,99301.09
2023-11-15T14:48:46.502Z,99312.13
2023-11-15T14:51:15.747Z,99314.69
2023-11-15T14:53:54.229Z,99317.22
2023-11-15T14:56:23.730Z,99327.41
2023-11-15T14:58:54.770Z,99329.94
2023-11-15T15:01:25.578Z,99334.97
2023-11-15T15:03:53.920Z,99334.97
2023-11-15T15:06:22.305Z,99340.84
2023-11-15T15:08:50.156Z,99348.56
2023-11-15T15:11:18.289Z,99345.13
2023-11-15T15:13:46.133Z,99356.19
2023-11-15T15:16:16.287Z,99366.34
2023-11-15T15:18:44.349Z,99376.56
2023-11-15T15:21:12.675Z,99374.84
2023-11-15T15:23:40.475Z,99379.06
2023-11-15T15:26:08.795Z,99384.16
2023-11-15T15:28:36.476Z,99397.81
2023-11-15T15:31:05.798Z,99396.19
2023-11-15T15:33:34.069Z,99415.63
2023-11-15T15:36:04.020Z,99413.00
2023-11-15T15:38:31.825Z,99418.06
2023-11-15T15:41:01.950Z,99433.28
2023-11-15T15:43:30.289Z,99433.13
2023-11-15T15:45:58.605Z,99433.09
2023-11-15T15:48:26.494Z,99441.56
2023-11-15T15:50:54.791Z,99443.28
2023-11-15T15:53:22.634Z,99452.72
2023-11-15T15:55:50.754Z,99454.31
2023-11-15T15:58:18.515Z,99473.91
2023-11-15T16:00:47.169Z,99469.63
2023-11-15T16:03:14.976Z,99467.00
2023-11-15T16:05:43.453Z,99477.16
2023-11-15T16:08:11.940Z,99483.09
2023-11-15T16:10:42.116Z,99491.56
2023-11-15T16:13:10.903Z,99494.94
2023-11-15T16:15:39.373Z,99502.69
2023-11-15T16:18:07.374Z,99512.97
2023-11-15T16:20:35.518Z,99515.56
2023-11-15T16:23:03.691Z,99519.81
2023-11-15T16:25:33.445Z,99522.28
2023-11-15T16:28:01.311Z,99525.59
2023-11-15T16:30:32.677Z,99529.75
2023-11-15T16:33:01.146Z,99530.63
2023-11-15T16:35:31.029Z,99530.53
2023-11-15T16:37:58.902Z,99535.66
2023-11-15T16:40:26.955Z,99543.19
2023-11-15T16:42:54.946Z,99546.59
2023-11-15T16:45:25.590Z,99550.78
2023-11-15T16:47:53.587Z,99561.06
2023-11-15T16:50:21.734Z,99559.34
2023-11-15T16:52:51.169Z,99566.03
2023-11-15T16:55:19.366Z,99562.53
2023-11-15T16:57:47.163Z,99567.72
2023-11-15T17:00:17.870Z,99570.94
2023-11-15T17:02:45.955Z,99575.16
2023-11-15T17:05:14.191Z,99580.22
2023-11-15T17:07:42.281Z,99586.22
2023-11-15T17:10:10.536Z,99597.19
2023-11-15T17:12:38.549Z,99602.28
2023-11-15T17:15:07.683Z,99616.75
2023-11-15T17:17:35.575Z,99617.59
2023-11-15T17:20:06.332Z,99631.19
2023-11-15T17:22:36.770Z,99639.53
2023-11-15T17:25:18.778Z,99642.78
2023-11-15T17:27:47.930Z,99656.47
2023-11-15T17:30:16.204Z,99658.06
2023-11-15T17:32:44.035Z,99660.91
2023-11-15T17:35:12.095Z,99670.91
2023-11-15T17:37:40.880Z,99686.13
2023-11-15T17:40:10.412Z,99691.13
2023-11-15T17:42:38.379Z,99701.31
2023-11-15T17:45:08.027Z,99706.31
2023-11-15T17:47:35.799Z,99712.31
2023-11-15T17:50:05.534Z,99714.63
2023-11-15T17:52:33.398Z,99720.66
2023-11-15T17:55:01.439Z,99719.00
2023-11-15T17:57:34.337Z,99719.78
2023-11-15T18:00:06.420Z,99723.94
2023-11-15T18:02:34.442Z,99734.97
2023-11-15T18:05:05.379Z,99749.41
2023-11-15T18:07:33.202Z,99747.13
2023-11-15T18:10:02.783Z,99752.84
2023-11-15T18:12:30.742Z,99756.88
2023-11-15T18:14:58.789Z,99758.47
2023-11-15T18:17:26.621Z,99763.59
2023-11-15T18:19:54.575Z,99760.97
2023-11-15T18:22:22.451Z,99766.22
2023-11-15T18:24:50.438Z,99776.28
2023-11-15T18:27:18.210Z,99778.78
2023-11-15T18:29:46.584Z,99787.22
2023-11-15T18:32:14.886Z,99786.34
2023-11-15T18:34:43.533Z,99794.94
2023-11-15T18:37:11.446Z,99789.75
2023-11-15T18:39:39.639Z,99802.47
2023-11-15T18:42:11.787Z,99797.38
2023-11-15T18:44:42.971Z,99795.69
2023-11-15T18:47:12.048Z,99798.31
2023-11-15T18:49:43.277Z,99798.03
2023-11-15T18:52:11.069Z,99793.72
2023-11-15T18:54:40.017Z,99792.09
2023-11-15T18:57:08.387Z,99801.41
2023-11-15T18:59:37.268Z,99805.59
2023-11-15T19:02:05.688Z,99797.97
2023-11-15T19:04:34.407Z,99811.63
2023-11-15T19:07:04.426Z,99817.72
2023-11-15T19:09:37.681Z,99821.84
2023-11-15T19:12:06.686Z,99816.75
2023-11-15T19:14:35.450Z,99824.38
2023-11-15T19:17:03.978Z,99822.88
2023-11-15T19:19:32.149Z,99835.56
2023-11-15T19:21:59.904Z,99838.16
2023-11-15T19:24:27.990Z,99837.34
2023-11-15T19:26:55.823Z,99839.75
2023-11-15T19:29:23.893Z,99847.44
2023-11-15T19:31:51.663Z,99849.38
2023-11-15T19:34:19.758Z,99849.06
2023-11-15T19:36:48.428Z,99856.56
2023-11-15T19:39:16.522Z,99859.28
2023-11-15T19:41:44.540Z,99857.56
2023-11-15T19:44:14.199Z,99869.47
2023-11-15T19:46:42.063Z,99863.50
2023-11-15T19:49:11.094Z,99868.41
2023-11-15T19:51:39.015Z,99872.81
2023-11-15T19:54:08.920Z,99873.84
2023-11-15T19:56:37.083Z,99888.22
2023-11-15T19:59:05.351Z,99880.63
2023-11-15T20:01:33.143Z,99886.59
2023-11-15T20:04:04.921Z,99889.13
2023-11-15T20:06:33.388Z,99891.69
2023-11-15T20:09:01.495Z,99895.94
2023-11-15T20:11:29.792Z,99898.53
2023-11-15T20:13:57.847Z,99892.56
2023-11-15T20:16:26.833Z,99904.31
2023-11-15T20:18:55.645Z,99910.34
2023-11-15T20:21:24.411Z,99915.44
2023-11-15T20:23:54.105Z,99922.34
2023-11-15T20:26:22.114Z,99917.31
2023-11-15T20:28:50.265Z,99920.75
2023-11-15T20:31:18.057Z,99923.84
2023-11-15T20:33:46.126Z,99928.84
2023-11-15T20:36:14.357Z,99928.03
2023-11-15T20:38:42.532Z,99929.78
2023-11-15T20:41:11.644Z,99936.53
2023-11-15T20:43:39.718Z,99945.94
2023-11-15T20:46:17.399Z,99949.34
2023-11-15T20:48:48.262Z,99949.22
2023-11-15T20:51:16.370Z,99950.22
2023-11-15T20:53:45.424Z,99957.09
2023-11-15T20:56:13.448Z,99955.22
2023-11-15T20:58:41.703Z,99950.97
2023-11-15T21:01:10.243Z,99959.41
2023-11-15T21:03:38.912Z,99962.94
2023-11-15T21:06:07.543Z,99958.75
2023-11-15T21:08:38.687Z,99963.09
2023-11-15T21:11:06.697Z,99967.38
2023-11-15T21:13:36.043Z,99961.28
2023-11-15T21:16:07.641Z,99974.19
2023-11-15T21:18:35.929Z,99987.78
2023-11-15T21:21:04.677Z,99975.91
2023-11-15T21:23:33.654Z,99984.31
2023-11-15T21:26:01.489Z,99980.09
2023-11-15T21:28:29.534Z,99986.16
2023-11-15T21:30:57.288Z,99990.50
2023-11-15T21:33:26.222Z,100004.28
2023-11-15T21:35:54.568Z,100005.03
2023-11-15T21:38:26.167Z,100012.53
2023-11-15T21:40:54.230Z,100000.44
2023-11-15T21:43:23.944Z,100012.53
2023-11-15T21:45:51.743Z,100009.00
2023-11-15T21:48:22.192Z,100009.69
2023-11-15T21:50:50.368Z,100014.56
2023-11-15T21:53:18.342Z,100016.19
2023-11-15T21:55:46.071Z,100023.03
2023-11-15T21:58:14.077Z,100026.25
2023-11-15T22:00:41.980Z,100032.78
2023-11-15T22:03:10.635Z,100032.91
2023-11-15T22:05:40.370Z,100043.53
2023-11-15T22:08:08.469Z,100040.28
2023-11-15T22:10:36.168Z,100041.13
2023-11-15T22:13:04.734Z,100043.53
2023-11-15T22:15:32.470Z,100042.75
2023-11-15T22:18:00.961Z,100053.53
2023-11-15T22:20:29.033Z,100045.94
2023-11-15T22:22:57.850Z,100050.16
2023-11-15T22:25:25.709Z,100049.41
2023-11-15T22:27:53.761Z,100062.13
2023-11-15T22:30:22.214Z,100061.88
2023-11-15T22:32:50.347Z,100067.28
2023-11-15T22:35:18.302Z,100064.53
2023-11-15T22:37:46.326Z,100066.19
2023-11-15T22:40:14.277Z,100061.97
2023-11-15T22:42:47.104Z,100068.75
2023-11-15T22:45:14.848Z,100064.53
2023-11-15T22:47:42.957Z,100066.13
2023-11-15T22:50:11.053Z,100070.41
2023-11-15T22:52:39.102Z,100070.31
2023-11-15T22:55:08.698Z,100077.25
2023-11-15T22:57:36.714Z,100079.81
2023-11-15T23:00:05.930Z,100086.66
2023-11-15T23:02:34.814Z,100090.88
2023-11-15T23:05:03.843Z,100086.66
2023-11-15T23:07:32.073Z,100092.53
2023-11-15T23:09:59.768Z,100106.84
2023-11-15T23:12:27.756Z,100099.16
2023-11-15T23:14:55.468Z,100107.84
2023-11-15T23:17:23.348Z,100102.56
2023-11-15T23:19:51.927Z,100104.25
2023-11-15T23:22:19.893Z,100100.06
2023-11-15T23:24:47.653Z,100111.13
2023-11-15T23:27:17.078Z,100111.13
2023-11-15T23:29:44.886Z,100109.38
2023-11-15T23:32:12.799Z,100112.63
2023-11-15T23:34:40.555Z,100116.91
2023-11-15T23:37:08.561Z,100108.69
2023-11-15T23:39:36.286Z,100114.56
2023-11-15T23:42:05.422Z,100106.03
2023-11-15T23:44:36.095Z,100106.00
2023-11-15T23:47:07.143Z,100107.56
2023-11-15T23:49:37.655Z,100114.28
2023-11-15T23:52:06.469Z,100117.63
2023-11-15T23:54:34.266Z,100113.34
2023-11-15T23:57:04.264Z,100109.63
2023-11-15T23:59:32.452Z,100115.25
